createdAt,value
2023-07-07T00:00:53.598Z,2.60
2023-07-07T00:03:21.809Z,2.30
2023-07-07T00:05:50.149Z,2.70
2023-07-07T00:08:18.736Z,2.63
2023-07-07T00:10:48.990Z,2.93
2023-07-07T00:13:18.198Z,3.10
2023-07-07T00:15:46.846Z,2.87
2023-07-07T00:18:16.880Z,2.33
2023-07-07T00:20:45.292Z,2.97
2023-07-07T00:23:14.053Z,3.33
2023-07-07T00:25:42.264Z,2.83
2023-07-07T00:28:12.241Z,2.80
2023-07-07T00:30:40.781Z,3.43
2023-07-07T00:33:09.055Z,3.07
2023-07-07T00:35:37.282Z,3.20
2023-07-07T00:38:05.601Z,3.80
2023-07-07T00:40:33.805Z,2.80
2023-07-07T00:43:02.054Z,2.80
2023-07-07T00:45:32.656Z,3.30
2023-07-07T00:48:04.313Z,3.00
2023-07-07T00:50:36.407Z,2.80
2023-07-07T00:53:05.100Z,2.33
2023-07-07T00:55:38.543Z,3.23
2023-07-07T00:58:09.957Z,4.00
2023-07-07T01:00:41.253Z,3.03
2023-07-07T01:03:13.359Z,2.63
2023-07-07T01:05:44.834Z,3.20
2023-07-07T01:08:13.346Z,3.40
2023-07-07T01:10:41.479Z,2.80
2023-07-07T01:13:10.880Z,3.10
2023-07-07T01:15:48.828Z,3.90
2023-07-07T01:18:28.081Z,3.63
2023-07-07T01:21:03.617Z,3.50
2023-07-07T01:24:19.886Z,3.40
2023-07-07T01:26:59.937Z,3.00
2023-07-07T01:29:50.700Z,3.50
2023-07-07T01:32:23.378Z,2.63
2023-07-07T01:34:55.700Z,3.13
2023-07-07T01:37:24.135Z,3.27
2023-07-07T01:39:53.940Z,2.93
2023-07-07T01:42:28.785Z,3.70
2023-07-07T01:45:06.191Z,3.30
2023-07-07T01:47:38.394Z,3.40
2023-07-07T01:50:09.748Z,3.70
2023-07-07T01:52:41.001Z,3.00
2023-07-07T01:55:18.698Z,3.43
2023-07-07T01:57:50.857Z,3.50
2023-07-07T02:00:21.272Z,3.80
2023-07-07T02:02:52.698Z,3.67
2023-07-07T02:05:21.756Z,3.30
2023-07-07T02:07:50.181Z,3.90
2023-07-07T02:10:18.352Z,3.17
2023-07-07T02:12:47.048Z,3.60
2023-07-07T02:15:15.381Z,3.67
2023-07-07T02:17:43.949Z,2.97
2023-07-07T02:20:13.909Z,3.37
2023-07-07T02:22:42.304Z,3.83
2023-07-07T02:25:11.597Z,3.17
2023-07-07T02:27:39.880Z,3.07
2023-07-07T02:30:09.507Z,3.37
2023-07-07T02:32:37.845Z,3.90
2023-07-07T02:35:07.674Z,3.80
2023-07-07T02:37:37.741Z,3.50
2023-07-07T02:40:06.933Z,3.30
2023-07-07T02:42:35.116Z,3.20
2023-07-07T02:45:03.265Z,4.10
2023-07-07T02:47:32.150Z,3.47
2023-07-07T02:50:00.418Z,3.10
2023-07-07T02:52:29.810Z,3.33
2023-07-07T02:55:00.017Z,3.43
2023-07-07T02:57:28.167Z,3.40
2023-07-07T02:59:56.346Z,3.97
2023-07-07T03:02:24.619Z,3.20
2023-07-07T03:04:53.654Z,4.50
2023-07-07T03:07:21.845Z,3.13
2023-07-07T03:09:50.529Z,3.67
2023-07-07T03:12:20.956Z,3.20
2023-07-07T03:14:49.316Z,3.33
2023-07-07T03:17:18.203Z,3.63
2023-07-07T03:19:50.669Z,4.00
2023-07-07T03:22:21.357Z,3.87
2023-07-07T03:24:54.189Z,3.63
2023-07-07T03:27:45.770Z,3.93
2023-07-07T03:30:26.944Z,3.47
2023-07-07T03:33:15.060Z,3.60
2023-07-07T03:35:46.896Z,3.33
2023-07-07T03:38:15.831Z,3.67
2023-07-07T03:40:51.197Z,3.13
2023-07-07T03:43:28.769Z,3.03
2023-07-07T03:45:57.755Z,3.60
2023-07-07T03:48:25.946Z,3.30
2023-07-07T03:50:58.624Z,3.53
2023-07-07T03:53:28.681Z,3.27
2023-07-07T03:55:57.441Z,3.60
2023-07-07T03:58:27.301Z,3.50
2023-07-07T04:01:01.465Z,3.20
2023-07-07T04:03:31.492Z,4.10
2023-07-07T04:06:01.542Z,3.53
2023-07-07T04:08:31.775Z,3.57
2023-07-07T04:11:01.663Z,3.50
2023-07-07T04:13:30.729Z,3.23
2023-07-07T04:16:02.682Z,3.60
2023-07-07T04:18:32.701Z,3.37
2023-07-07T04:21:01.899Z,3.53
2023-07-07T04:23:30.109Z,3.43
2023-07-07T04:25:59.030Z,3.30
2023-07-07T04:28:27.832Z,3.47
2023-07-07T04:30:58.036Z,4.00
2023-07-07T04:33:30.260Z,3.50
2023-07-07T04:36:01.100Z,3.23
2023-07-07T04:38:32.885Z,4.00
2023-07-07T04:41:12.285Z,3.30
2023-07-07T04:43:42.273Z,4.30
2023-07-07T04:46:12.920Z,3.57
2023-07-07T04:48:43.281Z,3.80
2023-07-07T04:51:13.272Z,3.73
2023-07-07T04:53:42.432Z,3.80
2023-07-07T04:56:12.359Z,3.33
2023-07-07T04:58:41.998Z,3.83
2023-07-07T05:01:11.910Z,3.20
2023-07-07T05:03:42.768Z,3.43
2023-07-07T05:06:11.671Z,3.07
2023-07-07T05:08:42.026Z,3.57
2023-07-07T05:11:13.224Z,3.77
2023-07-07T05:13:42.197Z,4.20
2023-07-07T05:16:12.039Z,4.07
2023-07-07T05:18:41.413Z,3.60
2023-07-07T05:21:13.784Z,4.00
2023-07-07T05:23:42.078Z,4.93
2023-07-07T05:26:10.901Z,4.03
2023-07-07T05:28:39.292Z,4.70
2023-07-07T05:31:09.250Z,4.40
2023-07-07T05:33:40.200Z,3.60
2023-07-07T05:36:10.860Z,5.77
2023-07-07T05:38:41.668Z,5.13
2023-07-07T05:41:11.133Z,5.67
2023-07-07T05:43:39.424Z,5.10
2023-07-07T05:46:10.187Z,4.90
2023-07-07T05:48:38.373Z,6.20
2023-07-07T05:51:09.380Z,5.97
2023-07-07T05:53:42.160Z,6.37
2023-07-07T05:56:14.654Z,5.80
2023-07-07T05:58:43.739Z,5.50
2023-07-07T06:01:14.802Z,6.03
2023-07-07T06:03:44.848Z,6.33
2023-07-07T06:06:13.965Z,5.03
2023-07-07T06:08:43.890Z,5.70
2023-07-07T06:11:12.537Z,5.63
2023-07-07T06:13:40.789Z,5.27
2023-07-07T06:16:09.310Z,6.10
2023-07-07T06:18:37.590Z,5.23
2023-07-07T06:21:06.530Z,6.30
2023-07-07T06:23:35.293Z,5.40
2023-07-07T06:26:04.942Z,4.93
2023-07-07T06:28:33.196Z,5.30
2023-07-07T06:31:01.602Z,5.17
2023-07-07T06:33:30.338Z,5.87
2023-07-07T06:35:58.667Z,5.63
2023-07-07T06:38:26.853Z,5.30
2023-07-07T06:40:56.190Z,5.60
2023-07-07T06:43:25.937Z,5.07
2023-07-07T06:45:57.437Z,4.60
2023-07-07T06:48:25.680Z,5.30
2023-07-07T06:50:53.926Z,4.57
2023-07-07T06:53:22.187Z,5.13
2023-07-07T06:55:50.389Z,4.80
2023-07-07T06:58:18.544Z,4.83
2023-07-07T07:00:48.169Z,5.33
2023-07-07T07:03:16.745Z,4.93
2023-07-07T07:05:44.991Z,4.60
2023-07-07T07:08:13.448Z,4.50
2023-07-07T07:10:41.685Z,5.17
2023-07-07T07:13:10.311Z,4.30
2023-07-07T07:15:38.560Z,4.37
2023-07-07T07:18:08.211Z,4.90
2023-07-07T07:20:36.525Z,4.13
2023-07-07T07:23:04.725Z,4.63
2023-07-07T07:25:32.899Z,4.77
2023-07-07T07:28:01.174Z,4.77
2023-07-07T07:30:29.381Z,3.67
2023-07-07T07:32:59.564Z,4.10
2023-07-07T07:35:29.209Z,3.70
2023-07-07T07:37:57.479Z,3.97
2023-07-07T07:40:26.352Z,4.03
2023-07-07T07:42:54.824Z,5.03
2023-07-07T07:45:25.008Z,4.17
2023-07-07T07:47:54.033Z,3.87
2023-07-07T07:50:24.246Z,4.50
2023-07-07T07:52:53.830Z,3.70
2023-07-07T07:55:22.238Z,3.70
2023-07-07T07:57:50.489Z,4.17
2023-07-07T08:00:19.492Z,4.10
2023-07-07T08:02:49.526Z,3.53
2023-07-07T08:05:18.130Z,3.25
2023-07-07T08:07:46.433Z,3.47
2023-07-07T08:10:16.177Z,3.87
2023-07-07T08:12:44.709Z,3.57
2023-07-07T08:15:14.474Z,3.67
2023-07-07T08:17:42.877Z,3.90
2023-07-07T08:20:22.945Z,3.90
2023-07-07T08:22:51.281Z,4.13
2023-07-07T08:25:20.983Z,4.13
2023-07-07T08:30:20.575Z,4.03
2023-07-07T08:32:50.093Z,3.80
2023-07-07T08:35:18.320Z,3.33
2023-07-07T08:37:46.679Z,4.93
2023-07-07T08:40:17.660Z,3.70
2023-07-07T08:42:48.029Z,3.60
2023-07-07T08:45:19.422Z,4.10
2023-07-07T08:48:01.903Z,3.23
2023-07-07T08:50:37.269Z,3.57
2023-07-07T08:53:33.706Z,3.50
2023-07-07T08:56:09.334Z,3.77
2023-07-07T08:58:51.523Z,3.90
2023-07-07T09:01:30.958Z,3.50
2023-07-07T09:04:15.579Z,4.30
2023-07-07T09:06:58.302Z,3.50
2023-07-07T09:09:40.010Z,4.07
2023-07-07T09:12:19.306Z,4.67
2023-07-07T09:14:54.733Z,3.90
2023-07-07T09:17:28.292Z,3.80
2023-07-07T09:19:58.740Z,3.27
2023-07-07T09:22:33.767Z,3.50
2023-07-07T09:25:06.245Z,3.40
2023-07-07T09:27:40.265Z,4.10
2023-07-07T09:30:23.038Z,3.90
2023-07-07T09:32:51.399Z,3.40
2023-07-07T09:35:22.743Z,4.27
2023-07-07T09:38:03.214Z,4.10
2023-07-07T09:40:39.680Z,3.60
2023-07-07T09:43:20.824Z,4.43
2023-07-07T09:46:04.276Z,3.80
2023-07-07T09:48:40.129Z,3.47
2023-07-07T09:51:18.014Z,3.70
2023-07-07T09:53:48.318Z,3.70
2023-07-07T09:56:21.521Z,3.67
2023-07-07T09:58:57.076Z,3.53
2023-07-07T10:01:33.165Z,4.03
2023-07-07T10:04:02.999Z,4.13
2023-07-07T10:06:33.500Z,3.37
2023-07-07T10:09:02.406Z,4.30
2023-07-07T10:12:02.373Z,3.80
2023-07-07T10:14:23.186Z,3.73
2023-07-07T10:17:00.649Z,4.43
2023-07-07T10:19:29.570Z,4.30
2023-07-07T10:21:58.296Z,3.80
2023-07-07T10:24:26.901Z,4.10
2023-07-07T10:26:55.268Z,4.23
2023-07-07T10:29:27.496Z,4.80
2023-07-07T10:31:57.264Z,4.13
2023-07-07T10:34:29.017Z,4.40
2023-07-07T10:36:57.806Z,3.80
2023-07-07T10:39:26.314Z,4.27
2023-07-07T10:41:54.511Z,4.20
2023-07-07T10:44:26.857Z,4.00
2023-07-07T10:46:56.676Z,5.00
2023-07-07T10:49:27.879Z,5.27
2023-07-07T10:53:18.077Z,4.00
2023-07-07T10:55:18.445Z,4.70
2023-07-07T10:57:57.002Z,3.83
2023-07-07T11:00:45.197Z,4.47
2023-07-07T11:03:46.189Z,4.40
2023-07-07T11:06:27.492Z,4.10
2023-07-07T11:09:03.407Z,4.07
2023-07-07T11:11:42.377Z,4.03
2023-07-07T11:14:27.913Z,4.53
2023-07-07T11:17:06.105Z,4.53
2023-07-07T11:19:52.590Z,5.17
2023-07-07T11:22:37.008Z,4.83
2023-07-07T11:25:23.337Z,4.60
2023-07-07T11:28:05.756Z,4.90
2023-07-07T11:30:43.865Z,4.43
2023-07-07T11:33:27.936Z,4.87
2023-07-07T11:36:05.708Z,4.40
2023-07-07T11:38:55.798Z,5.27
2023-07-07T11:41:32.978Z,5.13
2023-07-07T11:44:20.105Z,4.63
2023-07-07T11:47:02.893Z,4.60
2023-07-07T11:49:48.590Z,4.93
2023-07-07T11:52:28.287Z,6.20
2023-07-07T11:55:11.017Z,4.80
2023-07-07T11:57:52.351Z,4.57
2023-07-07T12:00:34.675Z,4.73
2023-07-07T12:03:32.444Z,4.63
2023-07-07T12:06:04.845Z,4.20
2023-07-07T12:08:39.587Z,5.00
2023-07-07T12:11:11.437Z,4.67
2023-07-07T12:13:47.654Z,5.00
2023-07-07T12:16:21.724Z,4.50
2023-07-07T12:18:55.895Z,4.60
2023-07-07T12:21:28.914Z,5.47
2023-07-07T12:24:02.165Z,4.27
2023-07-07T12:26:37.123Z,4.87
2023-07-07T12:29:07.232Z,4.70
2023-07-07T12:31:35.707Z,4.90
2023-07-07T12:34:20.235Z,5.50
2023-07-07T12:36:49.402Z,5.20
2023-07-07T12:39:18.881Z,4.93
2023-07-07T12:41:50.944Z,4.50
2023-07-07T12:44:19.171Z,4.80
2023-07-07T12:46:47.329Z,5.60
2023-07-07T12:49:21.605Z,4.70
2023-07-07T12:51:57.917Z,4.37
2023-07-07T12:54:33.422Z,4.60
2023-07-07T12:57:06.026Z,4.63
2023-07-07T12:59:38.852Z,4.70
2023-07-07T13:02:18.655Z,5.10
2023-07-07T13:04:51.937Z,5.00
2023-07-07T13:07:22.294Z,4.13
2023-07-07T13:09:52.430Z,4.57
2023-07-07T13:12:45.076Z,4.60
2023-07-07T13:15:20.197Z,4.73
2023-07-07T13:17:48.985Z,4.33
2023-07-07T13:20:19.643Z,4.20
2023-07-07T13:22:52.416Z,4.43
2023-07-07T13:25:23.104Z,5.00
2023-07-07T13:27:55.425Z,4.53
2023-07-07T13:30:29.339Z,4.53
2023-07-07T13:32:57.580Z,5.40
2023-07-07T13:35:26.646Z,4.33
2023-07-07T13:38:00.003Z,5.23
2023-07-07T13:40:30.225Z,4.40
2023-07-07T13:43:01.959Z,4.13
2023-07-07T13:45:33.765Z,4.10
2023-07-07T13:48:02.025Z,4.60
2023-07-07T13:50:31.813Z,4.80
2023-07-07T13:53:02.483Z,4.70
2023-07-07T13:55:33.946Z,4.87
2023-07-07T13:58:05.301Z,4.27
2023-07-07T14:00:36.823Z,4.40
2023-07-07T14:03:06.947Z,4.20
2023-07-07T14:05:37.801Z,4.13
2023-07-07T14:08:11.562Z,4.17
2023-07-07T14:10:40.423Z,4.03
2023-07-07T14:13:16.855Z,4.50
2023-07-07T14:15:50.459Z,4.90
2023-07-07T14:18:20.283Z,4.33
2023-07-07T14:20:51.307Z,4.03
2023-07-07T14:23:21.484Z,4.10
2023-07-07T14:25:55.602Z,4.17
2023-07-07T14:28:32.612Z,4.00
2023-07-07T14:31:05.549Z,4.10
2023-07-07T14:33:40.702Z,4.20
2023-07-07T14:36:18.955Z,4.13
2023-07-07T14:38:54.972Z,3.70
2023-07-07T14:41:25.338Z,3.97
2023-07-07T14:43:54.914Z,4.10
2023-07-07T14:46:26.159Z,4.00
2023-07-07T14:48:56.059Z,3.83
2023-07-07T14:51:27.907Z,3.53
2023-07-07T14:54:00.970Z,4.00
2023-07-07T14:56:34.788Z,3.63
2023-07-07T14:59:17.128Z,4.30
2023-07-07T15:01:55.210Z,3.23
2023-07-07T15:04:25.579Z,3.43
2023-07-07T15:06:54.744Z,4.33
2023-07-07T15:09:24.195Z,4.00
2023-07-07T15:11:53.759Z,4.20
2023-07-07T15:14:24.041Z,4.13
2023-07-07T15:16:52.707Z,3.80
2023-07-07T15:19:22.856Z,4.63
2023-07-07T15:21:51.777Z,4.00
2023-07-07T15:24:19.969Z,4.00
2023-07-07T15:26:48.156Z,4.10
2023-07-07T15:29:18.274Z,4.17
2023-07-07T15:31:49.112Z,3.40
2023-07-07T15:34:17.850Z,3.30
2023-07-07T15:36:46.044Z,3.93
2023-07-07T15:39:15.896Z,4.23
2023-07-07T15:41:44.437Z,3.83
2023-07-07T15:44:12.703Z,4.67
2023-07-07T15:46:48.440Z,3.90
2023-07-07T15:49:20.665Z,4.13
2023-07-07T15:51:49.266Z,4.27
2023-07-07T15:54:17.628Z,3.93
2023-07-07T15:56:49.686Z,4.10
2023-07-07T15:59:20.196Z,3.90
2023-07-07T16:01:48.749Z,4.63
2023-07-07T16:04:18.903Z,3.87
2023-07-07T16:06:48.017Z,4.40
2023-07-07T16:09:18.986Z,4.27
2023-07-07T16:11:47.671Z,3.70
2023-07-07T16:14:16.835Z,4.10
2023-07-07T16:16:46.962Z,4.33
2023-07-07T16:19:17.851Z,4.13
2023-07-07T16:21:47.365Z,4.50
2023-07-07T16:24:16.144Z,4.13
2023-07-07T16:26:47.956Z,4.43
2023-07-07T16:29:18.789Z,4.40
2023-07-07T16:31:47.702Z,4.57
2023-07-07T16:34:15.992Z,4.43
2023-07-07T16:36:44.505Z,4.67
2023-07-07T16:39:16.610Z,3.47
2023-07-07T16:41:45.295Z,4.47
2023-07-07T16:44:15.281Z,4.00
2023-07-07T16:46:44.208Z,4.50
2023-07-07T16:49:14.161Z,4.43
2023-07-07T16:51:42.960Z,3.40
2023-07-07T16:54:11.379Z,4.73
2023-07-07T16:56:43.041Z,3.93
2023-07-07T16:59:16.877Z,3.60
2023-07-07T17:01:46.004Z,4.03
2023-07-07T17:04:14.332Z,3.90
2023-07-07T17:06:42.561Z,4.20
2023-07-07T17:09:14.302Z,4.53
2023-07-07T17:11:43.853Z,4.60
2023-07-07T17:14:12.237Z,4.37
2023-07-07T17:16:42.354Z,4.43
2023-07-07T17:19:19.602Z,4.50
2023-07-07T17:21:47.966Z,3.93
2023-07-07T17:24:16.416Z,4.73
2023-07-07T17:26:47.790Z,4.47
2023-07-07T17:29:17.132Z,4.20
2023-07-07T17:31:45.870Z,4.30
2023-07-07T17:34:15.554Z,4.20
2023-07-07T17:36:43.781Z,4.27
2023-07-07T17:39:14.243Z,3.93
2023-07-07T17:41:43.453Z,4.20
2023-07-07T17:44:13.486Z,4.10
2023-07-07T17:46:43.135Z,4.10
2023-07-07T17:49:15.637Z,4.57
2023-07-07T17:51:44.284Z,4.73
2023-07-07T17:54:12.690Z,4.00
2023-07-07T17:56:42.438Z,3.97
2023-07-07T17:59:18.192Z,4.57
2023-07-07T18:01:46.852Z,4.57
2023-07-07T18:04:15.329Z,4.07
2023-07-07T18:06:48.488Z,4.23
2023-07-07T18:09:17.157Z,3.30
2023-07-07T18:11:45.638Z,4.13
2023-07-07T18:14:15.160Z,4.57
2023-07-07T18:16:45.756Z,3.90
2023-07-07T18:19:52.952Z,4.87
2023-07-07T18:22:12.256Z,4.13
2023-07-07T18:24:40.921Z,3.67
2023-07-07T18:27:11.313Z,4.10
2023-07-07T18:29:41.015Z,3.67
2023-07-07T18:32:11.986Z,3.90
2023-07-07T18:34:40.267Z,4.93
2023-07-07T18:37:11.837Z,4.20
2023-07-07T18:39:40.883Z,3.83
2023-07-07T18:42:11.207Z,5.10
2023-07-07T18:44:40.937Z,4.77
2023-07-07T18:47:16.518Z,3.67
2023-07-07T18:49:45.821Z,5.27
2023-07-07T18:52:15.358Z,4.47
2023-07-07T18:54:43.737Z,4.93
2023-07-07T18:57:12.857Z,3.70
2023-07-07T18:59:42.792Z,4.57
2023-07-07T19:02:16.247Z,4.10
2023-07-07T19:04:46.516Z,3.80
2023-07-07T19:07:17.522Z,4.80
2023-07-07T19:09:50.760Z,4.90
2023-07-07T19:12:19.217Z,4.20
2023-07-07T19:14:48.902Z,4.67
2023-07-07T19:17:17.463Z,5.07
2023-07-07T19:19:45.793Z,4.63
2023-07-07T19:22:14.815Z,5.03
2023-07-07T19:24:43.308Z,4.20
2023-07-07T19:27:13.234Z,4.97
2023-07-07T19:29:41.387Z,4.23
2023-07-07T19:32:29.301Z,4.23
2023-07-07T19:34:57.902Z,5.07
2023-07-07T19:37:26.114Z,4.00
2023-07-07T19:39:54.297Z,4.97
2023-07-07T19:42:22.520Z,4.17
2023-07-07T19:44:52.951Z,4.80
2023-07-07T19:47:21.680Z,4.83
2023-07-07T19:49:51.362Z,5.40
2023-07-07T19:52:20.640Z,4.93
2023-07-07T19:54:48.804Z,5.80
2023-07-07T19:57:22.113Z,4.80
2023-07-07T19:59:50.661Z,5.30
2023-07-07T20:02:20.521Z,4.83
2023-07-07T20:04:50.510Z,5.57
2023-07-07T20:07:18.854Z,5.00
2023-07-07T20:09:47.498Z,4.87
2023-07-07T20:12:18.817Z,4.87
2023-07-07T20:14:47.865Z,5.20
2023-07-07T20:17:16.311Z,5.20
2023-07-07T20:19:44.533Z,5.90
2023-07-07T20:22:14.616Z,4.63
2023-07-07T20:24:43.066Z,4.90
2023-07-07T20:27:13.270Z,5.37
2023-07-07T20:29:41.746Z,4.93
2023-07-07T20:32:16.879Z,5.23
2023-07-07T20:34:46.910Z,5.57
2023-07-07T20:37:17.146Z,5.80
2023-07-07T20:39:45.342Z,5.70
2023-07-07T20:42:15.971Z,5.93
2023-07-07T20:44:44.341Z,5.40
2023-07-07T20:47:13.581Z,6.03
2023-07-07T20:49:42.567Z,5.90
2023-07-07T20:52:13.004Z,6.00
2023-07-07T20:54:42.562Z,4.87
2023-07-07T20:57:19.021Z,6.40
2023-07-07T20:59:49.037Z,6.17
2023-07-07T21:02:18.443Z,5.10
2023-07-07T21:04:46.846Z,5.90
2023-07-07T21:07:15.120Z,5.30
2023-07-07T21:09:44.749Z,5.20
2023-07-07T21:12:13.119Z,4.77
2023-07-07T21:14:41.710Z,5.80
2023-07-07T21:17:14.398Z,5.40
2023-07-07T21:19:42.923Z,5.90
2023-07-07T21:22:12.315Z,6.13
2023-07-07T21:24:40.791Z,6.50
2023-07-07T21:27:11.608Z,5.77
2023-07-07T21:29:43.358Z,5.87
2023-07-07T21:32:12.716Z,5.40
2023-07-07T21:34:41.113Z,6.13
2023-07-07T21:37:11.968Z,5.47
2023-07-07T21:39:40.336Z,5.87
2023-07-07T21:42:13.773Z,5.33
2023-07-07T21:44:45.305Z,6.80
2023-07-07T21:47:16.951Z,5.93
2023-07-07T21:49:46.869Z,6.10
2023-07-07T21:52:17.615Z,5.53
2023-07-07T21:54:46.192Z,5.37
2023-07-07T21:57:33.950Z,5.97
2023-07-07T22:00:02.428Z,6.27
2023-07-07T22:02:30.897Z,5.50
2023-07-07T22:04:59.165Z,5.47
2023-07-07T22:07:27.399Z,6.00
2023-07-07T22:09:55.474Z,5.80
2023-07-07T22:12:25.189Z,6.33
2023-07-07T22:14:53.409Z,6.00
2023-07-07T22:17:21.675Z,6.43
2023-07-07T22:19:49.914Z,5.70
2023-07-07T22:22:18.102Z,6.40
2023-07-07T22:24:46.238Z,6.00
2023-07-07T22:27:15.811Z,6.30
2023-07-07T22:29:45.504Z,5.70
2023-07-07T22:32:14.973Z,6.17
2023-07-07T22:34:43.165Z,6.37
2023-07-07T22:37:13.426Z,5.83
2023-07-07T22:39:41.759Z,7.20
2023-07-07T22:42:14.087Z,6.20
2023-07-07T22:44:42.278Z,5.80
2023-07-07T22:47:12.292Z,6.47
2023-07-07T22:49:40.503Z,6.60
2023-07-07T22:52:13.637Z,6.57
2023-07-07T22:54:41.930Z,6.77
2023-07-07T22:57:12.740Z,5.97
2023-07-07T22:59:41.760Z,5.90
2023-07-07T23:02:14.038Z,5.30
2023-07-07T23:04:42.156Z,6.63
2023-07-07T23:07:12.063Z,6.23
2023-07-07T23:09:45.802Z,6.50
2023-07-07T23:12:15.681Z,6.23
2023-07-07T23:14:44.015Z,6.60
2023-07-07T23:17:20.977Z,6.30
2023-07-07T23:19:54.823Z,7.50
2023-07-07T23:22:30.905Z,6.37
2023-07-07T23:25:00.833Z,6.57
2023-07-07T23:27:34.630Z,6.40
2023-07-07T23:30:12.559Z,6.77
2023-07-07T23:32:42.394Z,6.93
2023-07-07T23:35:11.067Z,6.37
2023-07-07T23:37:39.440Z,6.40
2023-07-07T23:40:19.202Z,6.03
2023-07-07T23:42:47.386Z,5.63
2023-07-07T23:45:16.356Z,6.60
2023-07-07T23:47:49.428Z,6.00
2023-07-07T23:50:25.076Z,6.00
2023-07-07T23:52:53.489Z,6.70
2023-07-07T23:55:22.278Z,6.20
2023-07-07T23:57:50.823Z,6.30
